AMX200 MMAA-MMMX
Flight info
| Callsign | AMX200 |
|---|---|
| Flight time | 0h 33m |
| Altitude | 30000 |
| Route | ALNUS1B ALNUS UT117 ESPOS ESPOS4B |
| Aircraft | B738/M-SDE2E3FGHIRWXY/LB1 |
Departure
| Time | 2026-04-19 23:17 |
|---|---|
| Airport | General Juan N. Álvarez International Airport (MMAA) |
Arrival
| Time | 2026-04-19 23:51 |
|---|---|
| Airport | Mexico City Benito Juárez International Airport (MMMX) |
| Time | Latitude | Longitude | Altitude | Speed | Heading |
|---|---|---|---|---|---|
| 2026-04-19 23:14 | 16.75539 | -99.74194 | 18 ft | 32 kts | 108° |
| 2026-04-19 23:15 | 16.75447 | -99.73898 | 16 ft | 32 kts | 108° |
| 2026-04-19 23:15 | 16.75400 | -99.73750 | 16 ft | 31 kts | 108° |
| 2026-04-19 23:15 | 16.75352 | -99.73599 | 16 ft | 15 kts | 108° |
| 2026-04-19 23:15 | 16.75321 | -99.73503 | 18 ft | 14 kts | 108° |
| 2026-04-19 23:16 | 16.75292 | -99.73411 | 16 ft | 13 kts | 108° |
| 2026-04-19 23:16 | 16.75248 | -99.73334 | 16 ft | 13 kts | 155° |
| 2026-04-19 23:16 | 16.75163 | -99.73346 | 17 ft | 12 kts | 196° |
| 2026-04-19 23:16 | 16.75101 | -99.73397 | 19 ft | 14 kts | 263° |
| 2026-04-19 23:17 | 16.75148 | -99.73585 | 15 ft | 54 kts | 288° |
| 2026-04-19 23:17 | 16.75348 | -99.74225 | 18 ft | 129 kts | 288° |
| 2026-04-19 23:17 | 16.75682 | -99.75320 | 136 ft | 181 kts | 286° |
| 2026-04-19 23:17 | 16.76061 | -99.76588 | 1060 ft | 180 kts | 285° |
| 2026-04-19 23:18 | 16.76485 | -99.77816 | 2021 ft | 184 kts | 288° |
| 2026-04-19 23:18 | 16.76897 | -99.79109 | 2819 ft | 190 kts | 287° |
| 2026-04-19 23:18 | 16.77457 | -99.80366 | 3586 ft | 197 kts | 314° |
| 2026-04-19 23:18 | 16.78725 | -99.81020 | 3969 ft | 220 kts | 355° |
| 2026-04-19 23:19 | 16.80332 | -99.80970 | 4244 ft | 242 kts | 5° |
| 2026-04-19 23:19 | 16.82093 | -99.80831 | 4420 ft | 266 kts | 5° |
| 2026-04-19 23:19 | 16.83991 | -99.80690 | 4854 ft | 279 kts | 4° |
| 2026-04-19 23:19 | 16.85947 | -99.80560 | 5692 ft | 281 kts | 4° |
| 2026-04-19 23:20 | 16.87905 | -99.80441 | 6600 ft | 283 kts | 4° |
| 2026-04-19 23:20 | 16.89887 | -99.80331 | 7388 ft | 287 kts | 4° |
| 2026-04-19 23:20 | 16.91897 | -99.80226 | 8161 ft | 292 kts | 3° |
| 2026-04-19 23:20 | 16.93936 | -99.80126 | 8948 ft | 295 kts | 3° |
| 2026-04-19 23:21 | 16.95995 | -99.80023 | 9713 ft | 298 kts | 4° |
| 2026-04-19 23:21 | 16.98064 | -99.79922 | 10517 ft | 298 kts | 4° |
| 2026-04-19 23:21 | 17.00141 | -99.79824 | 11324 ft | 299 kts | 4° |
| 2026-04-19 23:21 | 17.02226 | -99.79728 | 12140 ft | 300 kts | 4° |
| 2026-04-19 23:22 | 17.04313 | -99.79633 | 12924 ft | 302 kts | 4° |
| 2026-04-19 23:22 | 17.06434 | -99.79538 | 13577 ft | 308 kts | 4° |
| 2026-04-19 23:22 | 17.08592 | -99.79441 | 14271 ft | 312 kts | 4° |
| 2026-04-19 23:22 | 17.10746 | -99.79345 | 14942 ft | 316 kts | 4° |
| 2026-04-19 23:23 | 17.12957 | -99.79247 | 15607 ft | 320 kts | 4° |
| 2026-04-19 23:23 | 17.15256 | -99.79146 | 15909 ft | 337 kts | 4° |
| 2026-04-19 23:23 | 17.17627 | -99.79040 | 16081 ft | 355 kts | 4° |
| 2026-04-19 23:23 | 17.20136 | -99.78929 | 16488 ft | 365 kts | 4° |
| 2026-04-19 23:24 | 17.22692 | -99.78817 | 17077 ft | 369 kts | 4° |
| 2026-04-19 23:24 | 17.25265 | -99.78705 | 17684 ft | 371 kts | 4° |
| 2026-04-19 23:24 | 17.27857 | -99.78592 | 18222 ft | 375 kts | 4° |
| 2026-04-19 23:24 | 17.30484 | -99.78478 | 18713 ft | 381 kts | 4° |
| 2026-04-19 23:25 | 17.33184 | -99.78358 | 18802 ft | 397 kts | 4° |
| 2026-04-19 23:25 | 17.35991 | -99.78234 | 18910 ft | 411 kts | 3° |
| 2026-04-19 23:25 | 17.38879 | -99.78106 | 19152 ft | 419 kts | 4° |
| 2026-04-19 23:25 | 17.41803 | -99.77979 | 19599 ft | 421 kts | 3° |
| 2026-04-19 23:26 | 17.44737 | -99.77850 | 20073 ft | 423 kts | 3° |
| 2026-04-19 23:26 | 17.47687 | -99.77721 | 20477 ft | 426 kts | 3° |
| 2026-04-19 23:26 | 17.50659 | -99.77590 | 20846 ft | 429 kts | 3° |
| 2026-04-19 23:26 | 17.53653 | -99.77457 | 21219 ft | 432 kts | 3° |
| 2026-04-19 23:27 | 17.56663 | -99.77325 | 21577 ft | 435 kts | 3° |
| 2026-04-19 23:27 | 17.59700 | -99.77197 | 21932 ft | 438 kts | 2° |
| 2026-04-19 23:27 | 17.62757 | -99.77188 | 22309 ft | 440 kts | 359° |
| 2026-04-19 23:27 | 17.65826 | -99.77270 | 22677 ft | 442 kts | 358° |
| 2026-04-19 23:28 | 17.68912 | -99.77373 | 22982 ft | 445 kts | 358° |
| 2026-04-19 23:28 | 17.72017 | -99.77466 | 23298 ft | 448 kts | 359° |
| 2026-04-19 23:28 | 17.75134 | -99.77541 | 23633 ft | 449 kts | 359° |
| 2026-04-19 23:28 | 17.78268 | -99.77608 | 23948 ft | 451 kts | 359° |
| 2026-04-19 23:29 | 17.81417 | -99.77715 | 24252 ft | 454 kts | 357° |
| 2026-04-19 23:29 | 17.84579 | -99.77879 | 24540 ft | 456 kts | 356° |
| 2026-04-19 23:29 | 17.87757 | -99.78065 | 24822 ft | 458 kts | 356° |
| 2026-04-19 23:29 | 17.90943 | -99.78256 | 25099 ft | 461 kts | 356° |
| 2026-04-19 23:30 | 17.94152 | -99.78444 | 25353 ft | 463 kts | 356° |
| 2026-04-19 23:30 | 17.97377 | -99.78627 | 25644 ft | 465 kts | 356° |
| 2026-04-19 23:30 | 18.00572 | -99.78803 | 25924 ft | 467 kts | 356° |
| 2026-04-19 23:30 | 18.03823 | -99.78979 | 26172 ft | 469 kts | 356° |
| 2026-04-19 23:31 | 18.07128 | -99.79155 | 26441 ft | 470 kts | 356° |
| 2026-04-19 23:31 | 18.10405 | -99.79330 | 26664 ft | 472 kts | 356° |
| 2026-04-19 23:31 | 18.13651 | -99.79503 | 26903 ft | 474 kts | 356° |
| 2026-04-19 23:31 | 18.16953 | -99.79679 | 27188 ft | 475 kts | 356° |
| 2026-04-19 23:32 | 18.20291 | -99.79857 | 27549 ft | 474 kts | 355° |
| 2026-04-19 23:32 | 18.23546 | -99.80032 | 27848 ft | 475 kts | 355° |
| 2026-04-19 23:32 | 18.26853 | -99.80210 | 28013 ft | 477 kts | 355° |
| 2026-04-19 23:32 | 18.29907 | -99.80376 | 28001 ft | 481 kts | 355° |
| 2026-04-19 23:33 | 18.33249 | -99.80553 | 27995 ft | 481 kts | 355° |
| 2026-04-19 23:33 | 18.36583 | -99.80734 | 28020 ft | 479 kts | 355° |
| 2026-04-19 23:33 | 18.43215 | -99.81091 | 28024 ft | 477 kts | 355° |
| 2026-04-19 23:34 | 18.49833 | -99.81446 | 28033 ft | 476 kts | 355° |
| 2026-04-19 23:34 | 18.56452 | -99.81802 | 28037 ft | 477 kts | 355° |
| 2026-04-19 23:35 | 18.59765 | -99.81981 | 27983 ft | 475 kts | 355° |
| 2026-04-19 23:35 | 18.63051 | -99.82157 | 27520 ft | 470 kts | 355° |
| 2026-04-19 23:35 | 18.66300 | -99.82307 | 26980 ft | 466 kts | 359° |
| 2026-04-19 23:35 | 18.69479 | -99.81753 | 26446 ft | 464 kts | 19° |
| 2026-04-19 23:36 | 18.72332 | -99.80208 | 25920 ft | 461 kts | 36° |
| 2026-04-19 23:36 | 18.74695 | -99.77966 | 25505 ft | 455 kts | 49° |
| 2026-04-19 23:36 | 18.76430 | -99.75207 | 25049 ft | 449 kts | 64° |
| 2026-04-19 23:36 | 18.77711 | -99.72236 | 24637 ft | 443 kts | 66° |
| 2026-04-19 23:37 | 18.78817 | -99.69213 | 24325 ft | 442 kts | 74° |
| 2026-04-19 23:37 | 18.79403 | -99.66027 | 24095 ft | 444 kts | 84° |
| 2026-04-19 23:37 | 18.79728 | -99.62786 | 23862 ft | 444 kts | 85° |
| 2026-04-19 23:37 | 18.80019 | -99.59546 | 23593 ft | 442 kts | 85° |
| 2026-04-19 23:38 | 18.80310 | -99.56326 | 23343 ft | 439 kts | 85° |
| 2026-04-19 23:38 | 18.80609 | -99.53141 | 23094 ft | 436 kts | 84° |
| 2026-04-19 23:38 | 18.80921 | -99.49965 | 22840 ft | 433 kts | 84° |
| 2026-04-19 23:38 | 18.81241 | -99.46811 | 22589 ft | 431 kts | 84° |
| 2026-04-19 23:39 | 18.81558 | -99.43716 | 22345 ft | 429 kts | 84° |
| 2026-04-19 23:39 | 18.81879 | -99.40591 | 22097 ft | 427 kts | 84° |
| 2026-04-19 23:39 | 18.82198 | -99.37486 | 21847 ft | 425 kts | 84° |
| 2026-04-19 23:39 | 18.82517 | -99.34385 | 21617 ft | 424 kts | 84° |
| 2026-04-19 23:40 | 18.82832 | -99.31303 | 21344 ft | 422 kts | 84° |
| 2026-04-19 23:40 | 18.83143 | -99.28224 | 21092 ft | 421 kts | 84° |
| 2026-04-19 23:40 | 18.83457 | -99.25151 | 20841 ft | 421 kts | 84° |
| 2026-04-19 23:40 | 18.83790 | -99.22094 | 20609 ft | 417 kts | 80° |
| 2026-04-19 23:41 | 18.84741 | -99.19242 | 20186 ft | 412 kts | 58° |
| 2026-04-19 23:41 | 18.86625 | -99.16997 | 19705 ft | 408 kts | 39° |
| 2026-04-19 23:41 | 18.89009 | -99.15414 | 19145 ft | 406 kts | 26° |
| 2026-04-19 23:41 | 18.91390 | -99.14243 | 18637 ft | 404 kts | 25° |
| 2026-04-19 23:42 | 18.93931 | -99.13025 | 18367 ft | 394 kts | 25° |
| 2026-04-19 23:42 | 18.96358 | -99.11859 | 18214 ft | 374 kts | 25° |
| 2026-04-19 23:42 | 18.98691 | -99.10722 | 17727 ft | 366 kts | 25° |
| 2026-04-19 23:42 | 19.00971 | -99.09595 | 17176 ft | 361 kts | 26° |
| 2026-04-19 23:43 | 19.03234 | -99.08470 | 16625 ft | 356 kts | 26° |
| 2026-04-19 23:43 | 19.05455 | -99.07359 | 16071 ft | 351 kts | 26° |
| 2026-04-19 23:43 | 19.07626 | -99.06275 | 15528 ft | 347 kts | 26° |
| 2026-04-19 23:43 | 19.09821 | -99.05177 | 14976 ft | 342 kts | 26° |
| 2026-04-19 23:44 | 19.11955 | -99.04113 | 14431 ft | 337 kts | 26° |
| 2026-04-19 23:44 | 19.14064 | -99.03059 | 13878 ft | 334 kts | 25° |
| 2026-04-19 23:44 | 19.16280 | -99.02398 | 13294 ft | 333 kts | 2° |
| 2026-04-19 23:44 | 19.18515 | -99.02744 | 12785 ft | 329 kts | 342° |
| 2026-04-19 23:45 | 19.20522 | -99.03860 | 12230 ft | 327 kts | 321° |
| 2026-04-19 23:45 | 19.22198 | -99.05465 | 11702 ft | 324 kts | 317° |
| 2026-04-19 23:45 | 19.23780 | -99.07076 | 11672 ft | 305 kts | 316° |
| 2026-04-19 23:45 | 19.25171 | -99.08699 | 11733 ft | 290 kts | 308° |
| 2026-04-19 23:46 | 19.26338 | -99.10359 | 11720 ft | 273 kts | 306° |
| 2026-04-19 23:46 | 19.27444 | -99.11966 | 11450 ft | 267 kts | 307° |
| 2026-04-19 23:46 | 19.28526 | -99.13506 | 11243 ft | 255 kts | 307° |
| 2026-04-19 23:46 | 19.29567 | -99.14967 | 11000 ft | 243 kts | 308° |
| 2026-04-19 23:47 | 19.30570 | -99.16364 | 10752 ft | 234 kts | 308° |
| 2026-04-19 23:47 | 19.31540 | -99.17708 | 10522 ft | 225 kts | 309° |
| 2026-04-19 23:47 | 19.32614 | -99.18861 | 10232 ft | 216 kts | 329° |
| 2026-04-19 23:47 | 19.33986 | -99.19369 | 9978 ft | 206 kts | 356° |
| 2026-04-19 23:48 | 19.35374 | -99.19278 | 9721 ft | 199 kts | 15° |
| 2026-04-19 23:48 | 19.36618 | -99.18714 | 9447 ft | 190 kts | 37° |
| 2026-04-19 23:48 | 19.37499 | -99.17721 | 9185 ft | 183 kts | 56° |
| 2026-04-19 23:48 | 19.38181 | -99.16641 | 9008 ft | 170 kts | 57° |
| 2026-04-19 23:49 | 19.38793 | -99.15578 | 8734 ft | 168 kts | 58° |
| 2026-04-19 23:49 | 19.39383 | -99.14520 | 8489 ft | 167 kts | 56° |
| 2026-04-19 23:49 | 19.39975 | -99.13461 | 8240 ft | 168 kts | 56° |
| 2026-04-19 23:49 | 19.40571 | -99.12398 | 8012 ft | 167 kts | 57° |
| 2026-04-19 23:50 | 19.41130 | -99.11325 | 7835 ft | 166 kts | 57° |
| 2026-04-19 23:50 | 19.41741 | -99.10288 | 7687 ft | 167 kts | 56° |
| 2026-04-19 23:50 | 19.42325 | -99.09220 | 7518 ft | 168 kts | 56° |
| 2026-04-19 23:50 | 19.42941 | -99.08151 | 7349 ft | 171 kts | 57° |
| 2026-04-19 23:51 | 19.43523 | -99.07116 | 7302 ft | 149 kts | 58° |
| 2026-04-19 23:51 | 19.43943 | -99.06369 | 7301 ft | 87 kts | 59° |
| 2026-04-19 23:51 | 19.44126 | -99.06039 | 7299 ft | 13 kts | 60° |
| 2026-04-19 23:51 | 19.44172 | -99.05954 | 7299 ft | 16 kts | 60° |
| 2026-04-19 23:52 | 19.44201 | -99.05860 | 7300 ft | 8 kts | 112° |
| 2026-04-19 23:52 | 19.44157 | -99.05834 | 7302 ft | 8 kts | 181° |
| 2026-04-19 23:52 | 19.44082 | -99.05843 | 7302 ft | 14 kts | 198° |
| 2026-04-19 23:52 | 19.44009 | -99.05911 | 7302 ft | 14 kts | 237° |
| 2026-04-19 23:53 | 19.43957 | -99.06004 | 7302 ft | 17 kts | 239° |
| 2026-04-19 23:53 | 19.43891 | -99.06116 | 7302 ft | 19 kts | 237° |
| 2026-04-19 23:53 | 19.43819 | -99.06239 | 7302 ft | 20 kts | 240° |
| 2026-04-19 23:53 | 19.43747 | -99.06373 | 7302 ft | 22 kts | 240° |
| 2026-04-19 23:54 | 19.43671 | -99.06514 | 7302 ft | 23 kts | 240° |
| 2026-04-19 23:54 | 19.43587 | -99.06663 | 7302 ft | 24 kts | 234° |
| 2026-04-19 23:54 | 19.43452 | -99.06761 | 7302 ft | 23 kts | 225° |
| 2026-04-19 23:54 | 19.43378 | -99.06906 | 7302 ft | 22 kts | 239° |
| 2026-04-19 23:55 | 19.43299 | -99.07044 | 7302 ft | 22 kts | 237° |
| 2026-04-19 23:55 | 19.43259 | -99.07202 | 7302 ft | 23 kts | 265° |
| 2026-04-19 23:55 | 19.43195 | -99.07356 | 7302 ft | 23 kts | 239° |
| 2026-04-19 23:55 | 19.43113 | -99.07498 | 7302 ft | 22 kts | 239° |
| 2026-04-19 23:56 | 19.43036 | -99.07636 | 7302 ft | 21 kts | 238° |
| 2026-04-19 23:56 | 19.42952 | -99.07761 | 7302 ft | 21 kts | 230° |
| 2026-04-19 23:56 | 19.42835 | -99.07853 | 7302 ft | 21 kts | 208° |
| 2026-04-19 23:56 | 19.42704 | -99.07851 | 7302 ft | 20 kts | 149° |
| 2026-04-19 23:57 | 19.42586 | -99.07775 | 7302 ft | 20 kts | 150° |
| 2026-04-19 23:57 | 19.42491 | -99.07719 | 7302 ft | 8 kts | 158° |
| 2026-04-19 23:57 | 19.42446 | -99.07740 | 7302 ft | 8 kts | 235° |
| 2026-04-19 23:57 | 19.42425 | -99.07775 | 7302 ft | 2 kts | 239° |
| 2026-04-19 23:58 | 19.42424 | -99.07777 | 7302 ft | 0 kts | 239° |